Barnes County Municipal Airport

KBAC · 北达科他州, 美国

罗盘
风向 的 风向 290° Barnes County Municipal Airport 5/23
风: 7 kt, 3 beaufort

4 kt

6 kt
改变
0 ft 2.000 4.000 6.000 8.000 10.000
Cloud Cloud Cloud Cloud Cloud Cloud
BKN 6.000
Cloud Cloud Cloud Cloud Cloud Cloud
BKN 7.500
METAR KBAC 161515Z AUTO 29007KT 9SM BKN060 BKN075 21/16 A2998 RMK AO2

METAR Barnes County Municipal Airport - KBAC

Barnes County Municipal Airport是,美国中的中型机场。 该机场位于纬度46,94079和经度-98,01789。 该机场有4条跑道: 5/23, 8/26, 13/31 和 17/35. 本场的ICAO机场代码为KBAC。 该机场的本地机场标识(FAA LID)为BAC。 机场在Minneapolis FIR中。

该航空气象观测是针对Barnes County Municipal Airport在2024年7月16日 10:15, 当地时间进行的。

机场观察

风向为290°,速度为7 kt。

可见度为9 mi。

有碎云在6.000 ft的高度 和 碎云在7.500 ft的高度。 破损或更高的上限为6.000 ft。

温度和风寒是21 °C。 露点为16 °C,相对湿度为73%。 海平面上的气压为29,98 inHg (QNH)。

白天

今天,太阳从05:54升起,在21:22降落。 这适用于Barnes County Municipal Airport,世界夏令时可能有所不同。 当地时间与世界标准时间之间的时差为-5 小时。 夏令时目前正在进行中。

公司介绍

我们没有关于这个机场的公司信息。

体会

到Vliegles.nl去找飞行课程,跳伞和其他飞行体验。 浏览页面,了解Barnes County Municipal Airport附近所有可用的活动。 你也可以使用搜索功能来寻找你所在地附近的特定飞行课程、跳伞或其他飞行体验。

跑道

Id 标题 侧风 逆风 侧风 %
5/23 058°-238° 6 kt 4 kt 79 %
8/26 090°-270° 2 kt 7 kt 34 %
13/31 134°-314° 3 kt 6 kt 41 %
17/35 180°-360° 7 kt 2 kt 94 %

逆风成分最大的方向会被突出显示,并用于横风计算。 这并不一定意味着这个方向在使用。

乌云

6.000 ft BKN 碎云
7.500 ft BKN 碎云

温度 & 天气

温度 21 °C
露点 16 °C
相对湿度 73%
Kp-index 0 (0-9)

评论

AO2自动气象站,可确定降水类型

白天

日出
05:54
中午
13:38
日落
21:22 (10:44)

小工具

你想在你的网站上有一个关于Barnes County Municipal Airport的当前航空天气(METAR)的小部件吗?

显示HTML代码
报告变更